Kampsville, Illinois
Current Conditions -  °F | °C
As of 9:55 PM on Saturday 20 Dec 2014 (Local Time) from KPPQ Reporting Station
Overcast Overcast  
Wind Chill: 33°   Ceiling: 3100
Heat Index: 37°   Visibility: 7mi
Dew Point: 34°   Wind: 5mph
Humidity: 89%   Direction: 160°SSE
Pressure: 30.23"   Gusts: NA
Location:  39.3°N, 90.61°W
Report Text: KPPQ 210355Z AUTO 16004KT 7SM OVC031 03/01 A3023 RMK AO2 T00280012
Loading
Personal Weather Stations






























Interactive Weather Map New forecast layout! Learn more

10-Day Weather Forecast

Advertisements
Track Severe Weather on mobile